Time;durP1;ratioP1;P1;durP2;ratioP2;P2;SDS_P1;SDS_P2;PMS_P1;PMS_P2;Temp;Humidity;BMP_temperature;BMP_pressure;BME280_temperature;BME280_humidity;BME280_pressure;Samples;Min_cycle;Max_cycle;Signal;HPM_P1;HPM_P2
2023/09/07 00:02:18;;;;;;;2.10;0.52;;;;;;;10.84;60.09;100262.06;5052827;28;20045;-69
2023/09/07 00:04:43;;;;;;;2.10;0.50;;;;;;;10.83;60.07;100260.34;5052151;28;20044;-69
2023/09/07 00:07:09;;;;;;;1.55;0.70;;;;;;;10.81;60.32;100270.34;5052131;28;20032;-68
2023/09/07 00:09:34;;;;;;;2.42;0.80;;;;;;;10.73;60.60;100261.06;5035378;28;20025;-69
2023/09/07 00:12:00;;;;;;;3.00;0.80;;;;;;;10.79;60.30;100269.59;5052502;28;20060;-69
2023/09/07 00:14:26;;;;;;;2.78;0.60;;;;;;;10.68;60.57;100247.16;5051990;28;20119;-69
2023/09/07 00:16:51;;;;;;;1.45;0.70;;;;;;;10.74;60.43;100261.94;5051076;28;20128;-68
2023/09/07 00:19:17;;;;;;;1.48;0.70;;;;;;;10.72;60.67;100269.19;5052642;28;20347;-69
2023/09/07 00:21:42;;;;;;;1.90;0.68;;;;;;;10.67;60.60;100266.00;5052218;28;20455;-69
2023/09/07 00:24:09;;;;;;;1.60;0.90;;;;;;;10.69;60.96;100264.94;5051862;28;20036;-68
2023/09/07 00:26:34;;;;;;;2.63;1.08;;;;;;;10.65;60.81;100274.19;5051373;28;20040;-69
2023/09/07 00:29:00;;;;;;;3.08;1.95;;;;;;;10.65;61.06;100276.84;5051890;28;20029;-69
2023/09/07 00:31:26;;;;;;;2.40;1.70;;;;;;;10.63;60.84;100278.78;5051450;28;20044;-69
2023/09/07 00:33:51;;;;;;;4.47;2.45;;;;;;;10.63;61.11;100284.16;5052462;28;20025;-69
2023/09/07 00:36:18;;;;;;;6.72;3.13;;;;;;;10.61;61.35;100283.41;5050986;28;20082;-69
2023/09/07 00:38:43;;;;;;;5.20;3.08;;;;;;;10.59;61.17;100270.13;5052462;28;20104;-68
2023/09/07 00:41:09;;;;;;;5.32;2.58;;;;;;;10.59;61.31;100282.63;5051411;28;20210;-68
2023/09/07 00:43:35;;;;;;;2.42;1.35;;;;;;;10.55;61.41;100274.00;5052331;28;20155;-69
2023/09/07 00:46:00;;;;;;;2.65;1.20;;;;;;;10.54;61.56;100287.47;5052431;28;20029;-69
2023/09/07 00:48:26;;;;;;;1.30;1.05;;;;;;;10.58;61.72;100292.50;5034101;28;20025;-68
2023/09/07 00:50:52;;;;;;;2.53;0.88;;;;;;;10.50;61.79;100283.31;5051539;28;20044;-69
2023/09/07 00:53:18;;;;;;;2.58;0.90;;;;;;;10.50;62.08;100286.00;5052242;28;20021;-69
2023/09/07 00:55:44;;;;;;;3.42;0.85;;;;;;;10.50;62.21;100296.72;5051485;28;20029;-69
2023/09/07 00:58:11;;;;;;;1.77;1.02;;;;;;;10.45;63.02;100299.72;5052284;28;20371;-69
2023/09/07 01:00:37;;;;;;;1.67;0.80;;;;;;;10.43;63.03;100304.31;5051921;28;20041;-69
2023/09/07 01:03:03;;;;;;;4.45;0.90;;;;;;;10.22;63.26;100279.94;5051751;28;20099;-70
2023/09/07 01:05:48;;;;;;;2.42;0.98;;;;;;;10.45;63.77;100316.66;5051318;28;20044;-68
2023/09/07 01:08:31;;;;;;;2.10;1.00;;;;;;;10.46;63.83;100322.84;5051859;28;20444;-70
2023/09/07 01:10:57;;;;;;;2.22;1.00;;;;;;;10.06;63.70;100267.66;5050975;28;20270;-68
2023/09/07 01:13:22;;;;;;;1.45;0.75;;;;;;;10.11;64.32;100278.88;5050902;28;20155;-68
2023/09/07 01:15:49;;;;;;;3.28;1.10;;;;;;;10.28;64.74;100319.63;5050911;28;20025;-68
2023/09/07 01:18:15;;;;;;;2.83;1.13;;;;;;;10.28;65.02;100327.66;5050898;28;20082;-69
2023/09/07 01:20:42;;;;;;;2.33;1.00;;;;;;;10.26;65.20;100321.56;5050938;28;20037;-68
2023/09/07 01:23:08;;;;;;;2.15;0.95;;;;;;;10.19;65.18;100311.31;5052120;28;20033;-68
2023/09/07 01:25:34;;;;;;;2.95;1.15;;;;;;;10.02;65.65;100288.44;5049040;28;20087;-68
2023/09/07 01:28:00;;;;;;;2.72;0.90;;;;;;;10.18;65.55;100317.63;5050689;28;20094;-68
2023/09/07 01:30:27;;;;;;;2.50;0.90;;;;;;;10.19;65.85;100322.03;5050777;28;20363;-68
2023/09/07 01:32:52;;;;;;;1.95;0.82;;;;;;;9.94;66.57;100280.09;5050954;28;20037;-69
2023/09/07 01:35:21;;;;;;;1.90;0.93;;;;;;;10.16;66.47;100326.72;5051008;28;20404;-68
2023/09/07 01:37:47;;;;;;;2.75;1.00;;;;;;;9.96;66.82;100290.69;5052953;28;20029;-69
2023/09/07 01:40:13;;;;;;;2.28;1.08;;;;;;;10.12;66.90;100326.06;5054899;28;20037;-69
2023/09/07 01:42:39;;;;;;;2.35;0.80;;;;;;;10.07;66.97;100320.19;5038244;28;20082;-69
2023/09/07 01:45:05;;;;;;;4.78;1.10;;;;;;;10.08;67.07;100335.28;5054274;28;20123;-68
2023/09/07 01:47:31;;;;;;;3.05;1.65;;;;;;;10.10;67.04;100336.03;5054759;28;20056;-67
2023/09/07 01:49:56;;;;;;;3.45;1.10;;;;;;;10.05;67.50;100331.03;5054426;28;20025;-69
2023/09/07 01:52:22;;;;;;;3.42;1.20;;;;;;;9.60;67.71;100267.25;5037429;28;20379;-68
2023/09/07 01:54:47;;;;;;;3.92;1.02;;;;;;;10.05;67.93;100346.19;5055182;28;20183;-66
2023/09/07 01:57:13;;;;;;;4.80;1.10;;;;;;;10.01;68.31;100344.72;5053948;28;20036;-68
2023/09/07 01:59:38;;;;;;;3.13;1.20;;;;;;;10.02;68.21;100346.44;5053701;28;20387;-69
2023/09/07 02:02:04;;;;;;;4.63;1.52;;;;;;;9.98;68.05;100344.94;5055491;28;20025;-68
2023/09/07 02:04:29;;;;;;;4.57;2.17;;;;;;;10.02;68.31;100347.28;5037634;28;20044;-68
2023/09/07 02:06:55;;;;;;;4.88;2.20;;;;;;;10.05;68.22;100356.91;5055018;28;20562;-67
2023/09/07 02:09:20;;;;;;;4.55;1.52;;;;;;;10.02;68.22;100349.09;5037586;28;20429;-69
2023/09/07 02:11:46;;;;;;;7.43;1.50;;;;;;;10.11;68.36;100356.47;5054826;28;20083;-68
2023/09/07 02:14:12;;;;;;;4.65;2.05;;;;;;;10.16;67.98;100348.13;5054871;28;20037;-67
2023/09/07 02:16:37;;;;;;;4.22;1.75;;;;;;;10.10;68.16;100348.56;5054109;28;20451;-68
2023/09/07 02:19:04;;;;;;;3.67;1.40;;;;;;;10.05;68.25;100348.88;5053290;28;20090;-69
2023/09/07 02:21:31;;;;;;;5.28;1.23;;;;;;;10.14;67.94;100366.13;5055529;28;20353;-68
2023/09/07 02:23:56;;;;;;;3.10;1.27;;;;;;;10.06;67.97;100350.59;5054801;28;20033;-68
2023/09/07 02:26:21;;;;;;;7.50;1.45;;;;;;;10.02;68.26;100349.09;5054317;28;20044;-68
2023/09/07 02:28:47;;;;;;;5.45;1.25;;;;;;;10.03;67.89;100356.16;5053283;28;20029;-68
2023/09/07 02:31:12;;;;;;;2.90;0.88;;;;;;;9.98;68.33;100355.63;5053484;28;20033;-68
2023/09/07 02:33:38;;;;;;;1.48;1.00;;;;;;;9.94;68.54;100356.81;5053214;28;20033;-68
2023/09/07 02:36:04;;;;;;;2.63;0.90;;;;;;;9.87;68.66;100362.56;5053249;28;20071;-69
2023/09/07 02:38:30;;;;;;;1.98;0.77;;;;;;;9.85;68.38;100363.66;5053264;28;20445;-68
2023/09/07 02:40:56;;;;;;;3.88;1.08;;;;;;;9.84;68.22;100369.97;5034642;28;20026;-68
2023/09/07 02:43:22;;;;;;;2.97;0.98;;;;;;;9.81;68.81;100367.50;5017131;28;20325;-68
2023/09/07 02:45:49;;;;;;;3.55;1.00;;;;;;;9.80;68.76;100371.16;5034237;28;20095;-68
2023/09/07 02:48:15;;;;;;;1.52;0.90;;;;;;;9.77;69.00;100367.72;5049902;28;20041;-67
2023/09/07 02:50:40;;;;;;;2.90;0.93;;;;;;;9.84;68.66;100392.19;5052420;28;20333;-68
2023/09/07 02:53:06;;;;;;;2.70;1.15;;;;;;;9.52;68.88;100331.09;5053402;28;20029;-68
2023/09/07 02:55:32;;;;;;;2.10;0.88;;;;;;;9.83;68.53;100379.78;5036810;28;20043;-68
2023/09/07 02:57:57;;;;;;;1.33;0.82;;;;;;;9.84;68.96;100378.81;5053378;28;20432;-69
2023/09/07 03:00:23;;;;;;;4.05;1.10;;;;;;;9.69;68.91;100347.81;5054139;28;20102;-68
2023/09/07 03:02:49;;;;;;;4.85;1.13;;;;;;;9.93;68.64;100387.19;5053999;28;20339;-67
2023/09/07 03:05:18;;;;;;;2.58;0.98;;;;;;;10.02;68.48;100394.56;5053724;28;20037;-69
2023/09/07 03:07:46;;;;;;;2.65;1.10;;;;;;;10.18;68.43;100400.59;5052754;28;20054;-68
2023/09/07 03:10:12;;;;;;;3.10;0.95;;;;;;;10.25;67.91;100394.78;5052657;28;20069;-68
2023/09/07 03:12:38;;;;;;;3.55;0.95;;;;;;;10.41;67.19;100406.16;5052905;28;20088;-68
2023/09/07 03:15:04;;;;;;;3.78;0.90;;;;;;;10.52;67.02;100409.91;5053022;28;20086;-68
2023/09/07 03:17:33;;;;;;;3.47;1.13;;;;;;;10.34;66.83;100368.25;5052271;28;20029;-67
2023/09/07 03:19:59;;;;;;;2.88;1.33;;;;;;;10.59;66.58;100403.13;5053620;28;20037;-69
2023/09/07 03:22:25;;;;;;;3.38;1.05;;;;;;;10.56;66.21;100376.56;5032365;28;20033;-68
2023/09/07 03:24:51;;;;;;;1.83;0.90;;;;;;;11.34;64.65;100410.22;5033470;28;20075;-68
2023/09/07 03:27:17;;;;;;;4.50;1.23;;;;;;;12.01;62.55;100413.25;5032784;28;20037;-68
2023/09/07 03:29:44;;;;;;;2.45;1.10;;;;;;;12.77;59.53;100399.22;5033317;28;20111;-68
2023/09/07 03:32:10;;;;;;;3.13;0.85;;;;;;;13.32;56.77;100355.38;5032457;28;20029;-68
2023/09/07 03:34:36;;;;;;;3.53;0.80;;;;;;;14.35;54.45;100395.16;5034177;28;20083;-69
2023/09/07 03:37:02;;;;;;;1.30;0.80;;;;;;;15.15;52.14;100391.72;5036046;28;20033;-69
2023/09/07 03:39:28;;;;;;;2.05;0.95;;;;;;;16.03;49.45;100407.09;5052458;28;20033;-69
2023/09/07 03:41:54;;;;;;;3.55;0.80;;;;;;;16.83;47.23;100403.09;5052100;28;20029;-67
2023/09/07 03:44:19;;;;;;;2.65;0.90;;;;;;;17.46;45.52;100401.44;5051859;28;20083;-68
2023/09/07 03:46:45;;;;;;;2.58;0.80;;;;;;;18.04;43.88;100399.22;5053286;28;20462;-69
2023/09/07 03:49:10;;;;;;;5.38;0.90;;;;;;;18.53;42.19;100411.38;5053226;28;20029;-69
2023/09/07 03:51:36;;;;;;;2.25;0.80;;;;;;;18.90;41.46;100400.16;5053039;28;20025;-68
2023/09/07 03:54:01;;;;;;;0.82;0.52;;;;;;;19.45;40.41;100411.53;5051661;28;20112;-69
2023/09/07 03:56:27;;;;;;;3.08;0.90;;;;;;;20.07;38.75;100406.63;5052121;28;20367;-69
2023/09/07 03:58:52;;;;;;;2.97;0.70;;;;;;;20.61;37.68;100402.41;5052176;28;20508;-69
2023/09/07 04:01:18;;;;;;;2.58;0.65;;;;;;;21.25;36.25;100417.78;5030595;28;20057;-69
2023/09/07 04:03:44;;;;;;;3.60;0.75;;;;;;;21.54;35.65;100410.78;5043572;28;20037;-69
2023/09/07 04:06:09;;;;;;;3.45;0.98;;;;;;;21.47;35.07;100393.47;5052999;28;20028;-69
2023/09/07 04:08:35;;;;;;;2.72;0.80;;;;;;;22.01;34.33;100411.59;5053378;28;20025;-69
2023/09/07 04:11:04;;;;;;;2.00;0.80;;;;;;;22.87;33.44;100426.72;5030902;28;20049;-69
2023/09/07 04:13:30;;;;;;;2.13;0.70;;;;;;;23.60;32.05;100425.03;5039581;28;20043;-68
2023/09/07 04:15:56;;;;;;;4.60;1.08;;;;;;;24.22;30.93;100428.97;5035217;28;20021;-68
2023/09/07 04:18:21;;;;;;;3.53;0.70;;;;;;;24.93;29.74;100423.50;5052520;28;20036;-68
2023/09/07 04:20:47;;;;;;;1.95;0.95;;;;;;;25.59;28.20;100426.66;5051380;28;20347;-69
2023/09/07 04:23:12;;;;;;;4.75;0.82;;;;;;;26.22;27.50;100441.91;5051608;28;20025;-69
2023/09/07 04:25:40;;;;;;;2.88;1.02;;;;;;;26.53;26.56;100409.34;5051271;28;20067;-69
2023/09/07 04:28:07;;;;;;;2.13;0.75;;;;;;;27.12;25.83;100445.88;5051923;28;20463;-69
2023/09/07 04:30:36;;;;;;;2.45;1.00;;;;;;;27.45;25.57;100455.03;5052131;28;20029;-68
2023/09/07 04:33:02;;;;;;;3.35;0.75;;;;;;;28.06;24.61;100447.22;5052024;28;20122;-69
2023/09/07 04:35:33;;;;;;;1.50;1.13;;;;;;;28.59;24.12;100459.66;5052265;28;20796;-69
2023/09/07 04:37:59;;;;;;;2.25;0.77;;;;;;;29.05;23.29;100440.91;5052350;28;20150;-66
2023/09/07 04:40:25;;;;;;;2.08;0.90;;;;;;;29.49;22.65;100450.97;5051206;28;20095;-71
2023/09/07 04:42:50;;;;;;;2.85;1.08;;;;;;;30.11;21.84;100449.78;5052762;28;20041;-71
2023/09/07 04:45:17;;;;;;;1.48;0.90;;;;;;;30.34;21.72;100450.88;5052257;28;20029;-68
2023/09/07 04:47:42;;;;;;;3.22;0.80;;;;;;;30.87;20.81;100459.28;5034797;28;20025;-73
2023/09/07 04:50:09;;;;;;;2.47;0.70;;;;;;;31.39;20.21;100425.19;5032297;28;20083;-73
2023/09/07 04:52:34;;;;;;;2.60;0.70;;;;;;;31.92;19.92;100472.91;5050321;28;20029;-71
2023/09/07 04:55:00;;;;;;;2.80;0.80;;;;;;;32.23;19.15;100480.91;5051352;28;20083;-73
2023/09/07 04:57:26;;;;;;;2.28;0.68;;;;;;;32.57;18.93;100472.56;5051178;28;20037;-73
2023/09/07 04:59:52;;;;;;;1.58;0.70;;;;;;;31.62;19.88;100446.38;5050870;28;20108;-73
2023/09/07 05:02:17;;;;;;;1.92;0.85;;;;;;;31.14;20.06;100470.59;5052176;28;20044;-73
2023/09/07 05:04:44;;;;;;;4.43;0.70;;;;;;;31.08;20.24;100449.47;5051970;28;20029;-71
2023/09/07 05:07:09;;;;;;;0.90;0.77;;;;;;;31.11;19.73;100476.63;5052421;28;20116;-72
2023/09/07 05:09:35;;;;;;;3.38;0.90;;;;;;;30.89;20.16;100481.97;5050684;28;20037;-70
2023/09/07 05:12:00;;;;;;;2.03;0.75;;;;;;;30.03;21.58;100475.00;5051198;28;20052;-72
2023/09/07 05:14:26;;;;;;;2.97;0.68;;;;;;;30.54;20.54;100482.81;5038524;28;20061;-71
2023/09/07 05:16:52;;;;;;;2.15;0.95;;;;;;;31.63;19.65;100472.94;5054058;28;20028;-74
2023/09/07 05:19:18;;;;;;;3.75;0.90;;;;;;;32.45;18.60;100467.13;5054297;28;20033;-74
2023/09/07 05:21:43;;;;;;;1.23;0.57;;;;;;;33.42;17.75;100471.44;5054910;28;20025;-71
2023/09/07 05:24:09;;;;;;;1.58;0.70;;;;;;;33.30;17.67;100449.38;5054965;28;20044;-73
2023/09/07 05:26:34;;;;;;;3.42;0.60;;;;;;;32.15;18.36;100484.06;5054358;28;20040;-73
2023/09/07 05:29:00;;;;;;;3.35;0.68;;;;;;;32.06;19.01;100478.97;5053880;28;20431;-71
2023/09/07 05:31:26;;;;;;;4.22;0.93;;;;;;;33.36;17.73;100472.44;5054098;28;20029;-73
2023/09/07 05:33:52;;;;;;;3.20;0.77;;;;;;;34.01;17.25;100482.84;5037673;28;20033;-72
2023/09/07 05:36:18;;;;;;;2.67;0.70;;;;;;;34.62;16.49;100465.78;5037834;28;20037;-73
2023/09/07 05:38:43;;;;;;;2.58;0.70;;;;;;;35.08;16.12;100471.84;5055210;28;20033;-70
2023/09/07 05:41:09;;;;;;;2.83;0.70;;;;;;;35.48;15.72;100478.63;5037877;28;20029;-70
2023/09/07 05:43:35;;;;;;;3.38;0.82;;;;;;;34.40;16.40;100477.00;5054077;28;20415;-72
2023/09/07 05:46:00;;;;;;;1.08;0.65;;;;;;;34.00;16.90;100479.22;5053894;28;20029;-71
2023/09/07 05:48:25;;;;;;;3.63;0.80;;;;;;;34.60;16.53;100481.03;5037717;28;20447;-73
2023/09/07 05:50:51;;;;;;;4.85;0.82;;;;;;;36.09;15.47;100477.03;5054820;28;20367;-72
2023/09/07 05:53:19;;;;;;;2.90;0.70;;;;;;;36.84;14.51;100485.81;5055066;28;20060;-71
2023/09/07 05:55:44;;;;;;;3.05;0.80;;;;;;;35.18;15.83;100485.78;5054747;28;20079;-74
2023/09/07 05:58:10;;;;;;;0.77;0.50;;;;;;;35.80;15.33;100480.34;5054336;28;20040;-74
2023/09/07 06:00:36;;;;;;;1.95;0.57;;;;;;;34.58;16.11;100486.84;5053913;28;20052;-74
2023/09/07 06:03:02;;;;;;;1.92;0.60;;;;;;;33.94;16.72;100496.91;5055319;28;20521;-73
2023/09/07 06:05:27;;;;;;;1.05;0.50;;;;;;;34.11;16.29;100459.84;5054894;28;20036;-73
2023/09/07 06:07:53;;;;;;;1.52;0.75;;;;;;;34.81;16.20;100490.31;5033352;28;20420;-76
2023/09/07 06:10:19;;;;;;;3.83;0.77;;;;;;;34.07;16.90;100498.44;5043034;28;20029;-73
2023/09/07 06:12:45;;;;;;;3.63;0.85;;;;;;;33.82;17.04;100488.75;5054926;28;20033;-72
2023/09/07 06:15:10;;;;;;;2.38;0.60;;;;;;;34.42;16.34;100491.47;5055132;28;20117;-74
2023/09/07 06:17:36;;;;;;;2.70;0.80;;;;;;;34.24;16.21;100476.06;5053660;28;20147;-72
2023/09/07 06:20:02;;;;;;;3.03;0.70;;;;;;;33.37;17.22;100501.84;5054707;28;20036;-74
2023/09/07 06:22:30;;;;;;;3.67;0.50;;;;;;;33.50;17.38;100497.88;5037323;28;20045;-72
2023/09/07 06:24:56;;;;;;;3.10;0.77;;;;;;;35.16;15.90;100499.13;5052999;28;20113;-73
2023/09/07 06:27:21;;;;;;;3.47;0.80;;;;;;;36.70;14.27;100500.38;5053389;28;20111;-73
2023/09/07 06:29:47;;;;;;;3.05;0.95;;;;;;;38.42;13.45;100497.34;5053710;28;20569;-71
2023/09/07 06:32:12;;;;;;;3.10;0.70;;;;;;;39.81;12.09;100511.59;5052865;28;20450;-75
2023/09/07 06:34:39;;;;;;;4.13;0.68;;;;;;;40.47;11.45;100485.53;5053384;28;20363;-73
2023/09/07 06:37:05;;;;;;;1.00;0.80;;;;;;;41.07;11.00;100488.53;5053411;28;20459;-71
2023/09/07 06:39:30;;;;;;;4.13;0.80;;;;;;;40.80;11.34;100515.50;5053195;28;20028;-72
2023/09/07 06:41:56;;;;;;;3.80;0.80;;;;;;;41.30;10.81;100509.09;5048707;28;20175;-68
2023/09/07 06:44:21;;;;;;;2.08;1.00;;;;;;;42.31;10.44;100513.72;5048892;28;20520;-74
2023/09/07 06:46:47;;;;;;;3.28;0.90;;;;;;;43.16;9.67;100504.28;5052884;28;20059;-72
2023/09/07 06:49:12;;;;;;;1.23;0.73;;;;;;;43.71;9.38;100512.50;5034387;28;20028;-73
2023/09/07 06:51:38;;;;;;;4.75;1.25;;;;;;;44.22;9.14;100493.00;5052242;28;20068;-73
2023/09/07 06:54:03;;;;;;;4.82;1.00;;;;;;;45.18;8.55;100507.84;5052589;28;20363;-76
2023/09/07 06:56:31;;;;;;;1.80;0.70;;;;;;;44.87;8.23;100512.66;5049065;28;20075;-64
2023/09/07 06:58:56;;;;;;;1.35;0.95;;;;;;;44.49;8.34;100521.13;5051665;28;20518;-68
2023/09/07 07:01:22;;;;;;;2.88;1.00;;;;;;;44.44;8.51;100516.47;5051667;28;20037;-64
2023/09/07 07:03:49;;;;;;;2.95;0.90;;;;;;;44.42;8.30;100491.44;5052955;28;20033;-64
2023/09/07 07:06:14;;;;;;;1.77;0.90;;;;;;;44.92;8.21;100516.44;5053549;28;20116;-69
2023/09/07 07:08:40;;;;;;;2.67;1.00;;;;;;;45.88;7.80;100495.13;5031599;28;20053;-66
2023/09/07 07:11:05;;;;;;;2.75;0.90;;;;;;;46.28;7.62;100524.84;5051729;28;20040;-67
2023/09/07 07:13:31;;;;;;;2.53;0.77;;;;;;;46.35;7.37;100519.44;5052989;28;20499;-72
2023/09/07 07:15:56;;;;;;;3.03;0.88;;;;;;;46.70;7.03;100526.69;5052891;28;20025;-68
2023/09/07 07:18:22;;;;;;;2.10;0.75;;;;;;;46.86;7.03;100523.97;5052295;28;20029;-66
2023/09/07 07:20:48;;;;;;;5.50;0.90;;;;;;;46.79;7.22;100518.91;5051496;28;20115;-75
2023/09/07 07:23:13;;;;;;;2.83;1.10;;;;;;;47.18;6.60;100529.03;5053698;28;20183;-68
2023/09/07 07:25:39;;;;;;;2.45;1.02;;;;;;;47.48;6.40;100508.91;5051404;28;20036;-65
2023/09/07 07:28:05;;;;;;;1.70;1.10;;;;;;;47.48;6.57;100531.59;5035164;28;20029;-69
2023/09/07 07:30:36;;;;;;;3.92;0.90;;;;;;;46.42;7.16;100525.34;5053358;28;20514;-66
2023/09/07 07:33:03;;;;;;;6.82;1.05;;;;;;;45.61;7.53;100513.53;5052697;28;20064;-69
2023/09/07 07:35:32;;;;;;;2.88;1.10;;;;;;;45.67;7.51;100509.31;5051227;28;20090;-71
2023/09/07 07:37:58;;;;;;;2.08;0.95;;;;;;;45.97;7.24;100478.06;5051833;28;20475;-67
2023/09/07 07:40:23;;;;;;;2.90;1.10;;;;;;;46.47;6.80;100515.81;5051306;28;20033;-71
2023/09/07 07:42:52;;;;;;;2.15;1.00;;;;;;;46.21;7.25;100516.97;5050988;28;20079;-66
2023/09/07 07:45:19;;;;;;;2.95;0.93;;;;;;;44.76;7.79;100510.56;5052646;28;21389;-70
2023/09/07 07:47:46;;;;;;;3.20;1.00;;;;;;;44.39;8.02;100519.50;5049962;28;20029;-68
2023/09/07 07:50:11;;;;;;;3.72;0.80;;;;;;;43.69;8.42;100509.16;5052293;28;20357;-68
2023/09/07 07:52:37;;;;;;;0.65;0.65;;;;;;;42.50;9.10;100504.25;5052450;28;20043;-72
2023/09/07 07:55:03;;;;;;;5.45;1.00;;;;;;;42.15;9.30;100508.50;5049088;28;20431;-72
2023/09/07 07:57:31;;;;;;;2.63;1.10;;;;;;;41.54;9.59;100511.66;5051958;28;20056;-74
2023/09/07 07:59:57;;;;;;;2.33;0.85;;;;;;;40.09;10.37;100500.50;5052415;28;20216;-67
2023/09/07 08:02:22;;;;;;;2.50;1.00;;;;;;;37.22;12.25;100497.41;5051393;28;20397;-66
2023/09/07 08:04:48;;;;;;;4.93;0.98;;;;;;;34.31;14.46;100476.66;5050848;28;20050;-68
2023/09/07 08:07:13;;;;;;;3.90;0.82;;;;;;;31.29;16.64;100423.06;5051486;28;20329;-69
2023/09/07 08:09:39;;;;;;;1.25;0.85;;;;;;;29.71;18.95;100502.84;5051946;28;20021;-69
2023/09/07 08:12:06;;;;;;;4.65;0.80;;;;;;;28.04;21.03;100504.41;5051423;28;20048;-67
2023/09/07 08:14:32;;;;;;;2.85;0.75;;;;;;;26.63;22.70;100470.97;5051471;28;20448;-66
2023/09/07 08:16:58;;;;;;;1.50;0.63;;;;;;;25.85;23.56;100494.41;5051570;28;20040;-77
2023/09/07 08:19:24;;;;;;;2.08;0.80;;;;;;;24.43;25.17;100494.78;5053592;28;20036;-74
2023/09/07 08:21:50;;;;;;;7.50;0.80;;;;;;;23.49;26.74;100472.88;5051141;28;20032;-73
2023/09/07 08:24:16;;;;;;;2.42;0.75;;;;;;;23.15;27.34;100504.34;5051585;28;20043;-70
2023/09/07 08:26:43;;;;;;;6.53;0.95;;;;;;;22.56;28.14;100493.28;5050242;28;20054;-73
2023/09/07 08:29:09;;;;;;;2.65;0.90;;;;;;;22.47;28.60;100500.69;5051825;28;20036;-76
2023/09/07 08:31:35;;;;;;;5.55;0.85;;;;;;;22.47;28.84;100500.69;5033747;28;20032;-72
2023/09/07 08:34:03;;;;;;;4.30;0.73;;;;;;;22.15;29.38;100496.38;5051385;28;20090;-72
2023/09/07 08:36:32;;;;;;;3.03;0.90;;;;;;;21.87;30.09;100494.22;5033579;28;20043;-79
2023/09/07 08:39:01;;;;;;;4.75;0.60;;;;;;;21.74;29.80;100482.00;5047995;28;20115;-67
2023/09/07 08:41:28;;;;;;;4.60;0.40;;;;;;;21.58;28.48;100477.50;5051524;28;20024;-71
2023/09/07 08:43:55;;;;;;;5.97;0.60;;;;;;;21.49;28.58;100487.59;5034535;28;20440;-71
2023/09/07 08:46:23;;;;;;;6.57;0.80;;;;;;;21.46;28.78;100490.69;5032332;28;20040;-69
2023/09/07 08:48:49;;;;;;;6.13;0.80;;;;;;;21.21;28.36;100495.41;5053254;28;20359;-67
2023/09/07 08:51:17;;;;;;;3.88;0.65;;;;;;;21.23;28.39;100496.09;5056362;28;20106;-67
2023/09/07 08:53:46;;;;;;;7.72;0.60;;;;;;;21.37;27.82;100492.59;5054499;28;20044;-74
2023/09/07 08:56:16;;;;;;;4.38;0.40;;;;;;;21.33;27.82;100466.75;5053144;28;20037;-69
2023/09/07 08:58:42;;;;;;;3.70;0.55;;;;;;;21.42;27.94;100497.53;5053285;28;20367;-66
2023/09/07 09:01:10;;;;;;;3.42;0.50;;;;;;;21.44;27.98;100497.31;5054725;28;20029;-66
2023/09/07 09:03:36;;;;;;;2.03;0.60;;;;;;;21.58;27.59;100499.28;5054125;28;20048;-66
2023/09/07 09:06:04;;;;;;;4.53;0.93;;;;;;;21.33;27.26;100496.72;5055000;28;20029;-64
2023/09/07 09:08:48;;;;;;;6.47;0.90;;;;;;;21.05;27.57;100504.50;5054238;28;20452;-67
2023/09/07 09:11:15;;;;;;;4.50;0.77;;;;;;;20.54;28.77;100494.75;5053428;28;20099;-68
2023/09/07 09:13:42;;;;;;;5.38;0.50;;;;;;;20.29;29.37;100499.38;5055073;28;20769;-65
2023/09/07 09:16:08;;;;;;;2.72;0.70;;;;;;;20.11;28.83;100486.81;5054036;28;20452;-66
2023/09/07 09:18:34;;;;;;;5.00;0.57;;;;;;;20.33;28.77;100492.59;5054359;28;20029;-69
2023/09/07 09:20:59;;;;;;;2.35;0.50;;;;;;;20.39;28.37;100501.94;5054283;28;20463;-69
2023/09/07 09:23:33;;;;;;;4.65;0.50;;;;;;;20.47;28.69;100497.31;5054762;28;20115;-69
2023/09/07 09:26:00;;;;;;;5.53;0.45;;;;;;;20.16;28.71;100461.84;5055780;28;20451;-66
2023/09/07 09:28:27;;;;;;;4.75;0.60;;;;;;;20.32;28.83;100496.31;5053986;28;20056;-75
2023/09/07 09:30:54;;;;;;;10.32;0.68;;;;;;;20.27;29.30;100496.81;5054341;28;20036;-70
2023/09/07 09:33:21;;;;;;;14.15;1.17;;;;;;;20.06;29.62;100506.34;5037922;28;20029;-69
2023/09/07 09:35:47;;;;;;;20.35;1.13;;;;;;;19.83;29.59;100497.13;5054621;28;20060;-68
2023/09/07 09:38:13;;;;;;;6.90;0.70;;;;;;;19.76;30.02;100503.25;5054664;28;20106;-68
2023/09/07 09:40:39;;;;;;;3.45;0.52;;;;;;;19.81;30.21;100500.03;5053915;28;20033;-65
2023/09/07 09:43:05;;;;;;;5.32;0.80;;;;;;;20.03;30.09;100494.97;5053648;28;20434;-64
2023/09/07 09:45:31;;;;;;;2.47;0.30;;;;;;;20.01;29.09;100497.84;5037575;28;20037;-68
2023/09/07 09:47:59;;;;;;;8.43;0.95;;;;;;;19.99;29.35;100494.47;5054089;28;20037;-65
2023/09/07 09:50:25;;;;;;;8.77;0.65;;;;;;;20.16;29.26;100489.88;5053514;28;20024;-70
2023/09/07 09:52:53;;;;;;;6.75;0.77;;;;;;;20.34;28.91;100494.28;5051593;28;20048;-70
2023/09/07 09:55:18;;;;;;;4.50;0.50;;;;;;;20.45;28.85;100488.47;5053964;28;20447;-71
2023/09/07 09:57:44;;;;;;;2.13;0.60;;;;;;;20.48;29.19;100477.25;5052442;28;20088;-65
2023/09/07 10:00:21;;;;;;;2.17;0.52;;;;;;;20.45;29.10;100468.59;5051901;28;20029;-62
2023/09/07 10:02:51;;;;;;;3.85;0.63;;;;;;;20.26;29.70;100489.69;5055049;28;20398;-64
2023/09/07 10:05:19;;;;;;;2.00;0.40;;;;;;;20.15;29.63;100504.47;5037105;28;20052;-64
2023/09/07 10:07:47;;;;;;;2.70;0.55;;;;;;;20.35;29.22;100490.53;5054509;28;20064;-64
2023/09/07 10:10:14;;;;;;;3.75;0.52;;;;;;;20.50;29.10;100482.53;5054542;28;20029;-63
2023/09/07 10:12:41;;;;;;;1.80;0.57;;;;;;;20.50;29.10;100496.13;5053234;28;20053;-66
2023/09/07 10:15:20;;;;;;;6.55;0.77;;;;;;;20.43;28.78;100482.34;5053278;28;20037;-62
2023/09/07 10:17:46;;;;;;;9.55;1.00;;;;;;;20.36;28.39;100503.94;5052523;28;20033;-64
2023/09/07 10:20:12;;;;;;;10.68;0.90;;;;;;;20.44;28.71;100499.53;5054440;28;20418;-63
2023/09/07 10:22:37;;;;;;;5.93;0.50;;;;;;;20.40;28.57;100492.75;5052422;28;20025;-63
2023/09/07 10:25:03;;;;;;;7.30;0.70;;;;;;;20.13;28.77;100464.88;5049467;28;20345;-61
2023/09/07 10:27:37;;;;;;;5.30;0.70;;;;;;;20.14;29.20;100497.34;5053707;28;20036;-63
2023/09/07 10:30:10;;;;;;;2.20;0.90;;;;;;;19.87;29.18;100458.59;5053950;28;20029;-64
2023/09/07 10:32:41;;;;;;;1.83;0.70;;;;;;;20.02;29.57;100487.84;5051153;28;20033;-64
2023/09/07 10:35:17;;;;;;;7.38;0.80;;;;;;;20.06;29.98;100490.03;5040044;28;20029;-62
2023/09/07 10:37:46;;;;;;;2.35;0.50;;;;;;;19.83;29.75;100491.69;5051140;28;20033;-63
2023/09/07 10:40:15;;;;;;;1.08;0.50;;;;;;;19.56;30.12;100488.25;5052386;28;20183;-62
2023/09/07 10:42:41;;;;;;;2.88;0.70;;;;;;;19.44;30.47;100479.56;5052504;28;20059;-63
2023/09/07 10:45:12;;;;;;;1.23;0.52;;;;;;;19.53;29.38;100467.69;5051609;28;20108;-62
2023/09/07 10:47:43;;;;;;;0.77;0.68;;;;;;;19.65;29.94;100473.66;5052204;28;20363;-64
2023/09/07 10:50:12;;;;;;;1.58;0.50;;;;;;;19.70;29.46;100478.59;5053910;28;20033;-61
2023/09/07 10:52:38;;;;;;;3.42;0.70;;;;;;;19.58;29.76;100470.78;5053228;28;20033;-62
2023/09/07 10:55:04;;;;;;;6.90;0.70;;;;;;;19.17;29.80;100430.84;5053455;28;20025;-63
2023/09/07 10:57:29;;;;;;;2.63;0.60;;;;;;;19.34;30.04;100479.72;5053068;28;20035;-62
2023/09/07 10:59:55;;;;;;;4.13;0.80;;;;;;;19.29;30.52;100472.09;5053656;28;20555;-62
2023/09/07 11:02:21;;;;;;;9.48;1.63;;;;;;;19.44;30.67;100479.56;5053749;28;20044;-63
2023/09/07 11:04:46;;;;;;;4.68;1.52;;;;;;;19.34;30.33;100464.28;5053418;28;20032;-62
2023/09/07 11:07:12;;;;;;;5.63;2.00;;;;;;;19.21;30.92;100485.63;5052879;28;20107;-63
2023/09/07 11:09:42;;;;;;;5.55;3.92;;;;;;;18.85;31.74;100442.38;5052336;28;20113;-64
2023/09/07 11:12:08;;;;;;;4.82;1.25;;;;;;;18.92;31.67;100486.84;5053156;28;20037;-64
2023/09/07 11:14:34;;;;;;;3.58;0.77;;;;;;;18.88;31.65;100485.47;5051112;28;20411;-61
2023/09/07 11:17:03;;;;;;;3.67;0.77;;;;;;;18.63;31.86;100441.94;5053389;28;20029;-65
2023/09/07 11:19:33;;;;;;;0.95;0.50;;;;;;;18.66;31.99;100482.28;5053281;28;20029;-62
2023/09/07 11:21:58;;;;;;;5.43;0.82;;;;;;;18.40;32.30;100469.59;5050682;28;20033;-63
2023/09/07 11:24:25;;;;;;;2.65;0.75;;;;;;;18.15;32.56;100469.44;5050640;28;20039;-66